EKBI

Billund Airport

Billund, Denmark
TAF EKBI 251104Z 2512/2612 24012KT 9999 SCT030 BECMG 2601/2604 24018KT TEMPO 2604/2610 24020G35KT TEMPO 2610/2612 24020G35KT BKN012
Issued Valid From Valid To
Sep-25 @ 11:04 UTC
(6 hours ago)
Sep-25 @ 12:00 UTC
(5 hours ago)
Sep-26 @ 12:00 UTC
(in 19 hours)
Sep-25 @ 12:00 to Sep-26 @ 01:00
TAF EKBI 251104Z 2512/2612 24012KT 9999 SCT030
Wind Visibility Clouds
240° at 12 knots 10,000+ meters
  • Scattered at 3,000' AGL
Becoming Sep-26 @ 01:00 to Sep-26 @ 12:00
BECMG 2601/2604 24018KT
Wind Visibility Clouds
240° at 18 knots 10,000+ meters
  • Scattered at 3,000' AGL
Temporary Sep-26 @ 04:00 to Sep-26 @ 10:00
TEMPO 2604/2610 24020G35KT
Wind
240° at 20 knots
 Gusting to 35 knots
Temporary Sep-26 @ 10:00 to Sep-26 @ 12:00
TEMPO 2610/2612 24020G35KT BKN012
Wind Clouds
240° at 20 knots
 Gusting to 35 knots
  • Broken at 1,200' AGL
TAF EKBI 251104Z 2512/2612 24012KT 9999 SCT030 BECMG 2601/2604 24018KT TEMPO 2604/2610 24020G35KT TEMPO 2610/2612 24020G35KT BKN012
Issued Sep-25 @ 11:04 UTC
(6 hours ago)
Valid From Sep-25 @ 12:00 UTC
(5 hours ago)
Valid To Sep-26 @ 12:00 UTC
(in 19 hours)
Sep-25 @ 12:00 - Sep-26 @ 01:00
Wind Visibility
240° at 12 knots 10,000+ meters
Clouds
  • Scattered at 3,000' AGL
Becoming Sep-26 @ 01:00 - Sep-26 @ 12:00
Wind Visibility
240° at 18 knots 10,000+ meters
Clouds
  • Scattered at 3,000' AGL
Temporary Sep-26 @ 04:00 - Sep-26 @ 10:00
Wind
240° at 20 knots
 Gusting to 35 knots
Temporary Sep-26 @ 10:00 - Sep-26 @ 12:00
Wind
240° at 20 knots
 Gusting to 35 knots
Clouds
  • Broken at 1,200' AGL